createdAt,value
2018-02-05T00:00:29.499Z,2.11
2018-02-05T00:02:58.131Z,2.06
2018-02-05T00:05:26.487Z,2.02
2018-02-05T00:07:54.873Z,2.14
2018-02-05T00:10:24.144Z,2.13
2018-02-05T00:12:53.469Z,2.19
2018-02-05T00:15:21.895Z,2.33
2018-02-05T00:17:51.166Z,2.17
2018-02-05T00:20:19.710Z,2.24
2018-02-05T00:22:48.907Z,2.13
2018-02-05T00:25:18.143Z,2.20
2018-02-05T00:27:46.544Z,2.25
2018-02-05T00:30:14.872Z,2.33
2018-02-05T00:32:43.218Z,2.30
2018-02-05T00:35:13.064Z,2.38
2018-02-05T00:37:41.398Z,2.34
2018-02-05T00:40:10.533Z,2.30
2018-02-05T00:42:38.880Z,2.28
2018-02-05T00:45:07.227Z,2.18
2018-02-05T00:47:35.620Z,2.14
2018-02-05T00:50:05.481Z,2.02
2018-02-05T00:52:33.905Z,2.04
2018-02-05T00:55:02.231Z,2.19
2018-02-05T00:57:30.554Z,2.16
2018-02-05T01:00:00.475Z,2.14
2018-02-05T01:02:28.894Z,2.04
2018-02-05T01:04:57.227Z,2.06
2018-02-05T01:07:25.587Z,1.87
2018-02-05T01:09:53.904Z,1.82
2018-02-05T01:12:23.020Z,1.84
2018-02-05T01:14:51.571Z,1.76
2018-02-05T01:17:19.904Z,1.81
2018-02-05T01:19:48.426Z,1.82
2018-02-05T01:22:17.490Z,1.78
2018-02-05T01:24:45.896Z,1.78
2018-02-05T01:27:14.244Z,1.74
2018-02-05T01:29:42.575Z,1.60
2018-02-05T01:32:11.958Z,1.50
2018-02-05T01:34:41.163Z,1.62
2018-02-05T01:37:09.711Z,1.67
2018-02-05T01:39:38.108Z,1.65
2018-02-05T01:42:07.208Z,1.74
2018-02-05T01:44:36.363Z,1.94
2018-02-05T01:47:04.922Z,1.92
2018-02-05T01:49:33.246Z,1.83
2018-02-05T01:52:01.698Z,1.73
2018-02-05T01:54:30.041Z,1.80
2018-02-05T01:56:58.395Z,1.84
2018-02-05T01:59:26.748Z,1.78
2018-02-05T02:01:55.157Z,1.60
2018-02-05T02:04:23.525Z,1.66
2018-02-05T02:06:51.846Z,1.80
2018-02-05T02:09:20.163Z,1.78
2018-02-05T02:11:48.576Z,1.70
2018-02-05T02:14:16.963Z,1.68
2018-02-05T02:16:46.246Z,1.59
2018-02-05T02:19:15.334Z,1.49
2018-02-05T02:21:44.422Z,1.42
2018-02-05T02:24:13.495Z,1.37
2018-02-05T02:26:41.851Z,1.35
2018-02-05T02:29:10.288Z,1.37
2018-02-05T02:31:39.364Z,1.49
2018-02-05T02:34:08.535Z,1.46
2018-02-05T02:36:38.636Z,1.51
2018-02-05T02:39:06.968Z,1.42
2018-02-05T02:41:36.066Z,1.44
2018-02-05T02:44:05.185Z,1.60
2018-02-05T02:46:33.523Z,1.68
2018-02-05T02:49:01.858Z,1.66
2018-02-05T02:51:30.189Z,1.60
2018-02-05T02:53:59.111Z,1.61
2018-02-05T02:56:27.431Z,1.54
2018-02-05T02:58:55.739Z,1.59
2018-02-05T03:01:24.059Z,1.57
2018-02-05T03:03:52.382Z,1.59
2018-02-05T03:06:21.574Z,1.70
2018-02-05T03:08:50.848Z,1.53
2018-02-05T03:11:19.183Z,1.57
2018-02-05T03:13:47.498Z,1.54
2018-02-05T03:16:17.315Z,1.55
2018-02-05T03:18:47.146Z,1.65
2018-02-05T03:21:16.277Z,1.57
2018-02-05T03:23:44.670Z,1.56
2018-02-05T03:26:13.048Z,1.43
2018-02-05T03:28:41.386Z,1.48
2018-02-05T03:31:09.711Z,1.35
2018-02-05T03:33:38.060Z,1.14
2018-02-05T03:36:06.369Z,1.09
2018-02-05T03:38:34.687Z,1.11
2018-02-05T03:41:03.007Z,0.94
2018-02-05T03:43:31.461Z,1.29
2018-02-05T03:45:59.833Z,1.18
2018-02-05T03:48:28.142Z,1.23
2018-02-05T03:50:56.573Z,1.16
2018-02-05T03:53:24.927Z,1.26
2018-02-05T03:55:54.035Z,1.32
2018-02-05T03:58:23.172Z,1.28
2018-02-05T04:00:51.543Z,1.33
2018-02-05T04:03:19.865Z,1.32
2018-02-05T04:05:48.168Z,1.26
2018-02-05T04:08:16.503Z,1.27
2018-02-05T04:10:44.837Z,1.27
2018-02-05T04:13:13.197Z,1.17
2018-02-05T04:15:41.508Z,1.30
2018-02-05T04:18:09.829Z,1.21
2018-02-05T04:20:38.974Z,1.36
2018-02-05T04:23:07.286Z,1.23
2018-02-05T04:25:35.647Z,1.41
2018-02-05T04:28:03.958Z,1.37
2018-02-05T04:30:33.051Z,1.26
2018-02-05T04:33:02.315Z,1.31
2018-02-05T04:35:30.726Z,1.32
2018-02-05T04:37:59.903Z,1.24
2018-02-05T04:40:28.419Z,1.24
2018-02-05T04:42:56.748Z,1.22
2018-02-05T04:45:25.060Z,1.19
2018-02-05T04:47:54.147Z,1.31
2018-02-05T04:50:23.390Z,1.22
2018-02-05T04:52:52.533Z,1.30
2018-02-05T04:55:21.745Z,1.38
2018-02-05T04:57:51.044Z,1.47
2018-02-05T05:00:20.139Z,1.39
2018-02-05T05:02:49.439Z,1.32
2018-02-05T05:05:18.508Z,1.22
2018-02-05T05:07:46.988Z,1.33
2018-02-05T05:10:15.335Z,1.45
2018-02-05T05:12:43.643Z,1.42
2018-02-05T05:15:11.958Z,1.36
2018-02-05T05:17:40.289Z,1.35
2018-02-05T05:20:08.647Z,1.28
2018-02-05T05:22:36.983Z,1.21
2018-02-05T05:25:05.297Z,1.37
2018-02-05T05:27:34.298Z,1.36
2018-02-05T05:30:02.623Z,1.21
2018-02-05T05:32:31.715Z,1.21
2018-02-05T05:35:00.788Z,1.36
2018-02-05T05:37:30.780Z,1.39
2018-02-05T05:39:59.099Z,1.20
2018-02-05T05:42:27.419Z,1.12
2018-02-05T05:44:55.758Z,1.17
2018-02-05T05:47:24.104Z,1.20
2018-02-05T05:49:52.440Z,1.03
2018-02-05T05:52:21.056Z,1.09
2018-02-05T05:54:49.719Z,1.03
2018-02-05T05:57:18.103Z,1.15
2018-02-05T05:59:46.529Z,1.38
2018-02-05T06:02:15.123Z,1.30
2018-02-05T06:04:43.639Z,1.34
2018-02-05T06:07:12.122Z,1.30
2018-02-05T06:09:41.985Z,1.24
2018-02-05T06:12:10.564Z,1.24
2018-02-05T06:14:39.677Z,1.32
2018-02-05T06:17:08.088Z,1.27
2018-02-05T06:19:37.214Z,1.13
2018-02-05T06:22:06.355Z,1.14
2018-02-05T06:24:34.724Z,1.16
2018-02-05T06:27:03.084Z,1.18
2018-02-05T06:29:31.465Z,1.15
2018-02-05T06:31:59.891Z,1.07
2018-02-05T06:34:28.356Z,1.14
2018-02-05T06:36:56.964Z,1.15
2018-02-05T06:39:25.432Z,1.09
2018-02-05T06:41:53.757Z,1.08
2018-02-05T06:44:22.101Z,1.20
2018-02-05T06:46:52.675Z,1.12
2018-02-05T06:49:21.030Z,1.14
2018-02-05T06:52:07.743Z,1.13
2018-02-05T06:54:53.742Z,1.22
2018-02-05T06:57:22.564Z,1.44
2018-02-05T06:59:50.885Z,1.32
2018-02-05T07:02:19.956Z,1.29
2018-02-05T07:04:48.297Z,1.46
2018-02-05T07:07:16.625Z,1.40
2018-02-05T07:09:45.740Z,1.50
2018-02-05T07:12:14.818Z,1.38
2018-02-05T07:14:43.971Z,1.41
2018-02-05T07:17:12.313Z,1.41
2018-02-05T07:19:40.643Z,1.41
2018-02-05T07:22:08.984Z,1.35
2018-02-05T07:24:37.298Z,1.45
2018-02-05T07:27:06.407Z,1.48
2018-02-05T07:29:34.783Z,1.29
2018-02-05T07:32:03.148Z,1.39
2018-02-05T07:34:31.523Z,1.55
2018-02-05T07:37:01.400Z,1.38
2018-02-05T07:39:29.735Z,1.51
2018-02-05T07:41:58.848Z,1.49
2018-02-05T07:44:27.208Z,1.57
2018-02-05T07:46:56.298Z,1.55
2018-02-05T07:49:25.433Z,1.59
2018-02-05T07:51:54.729Z,1.51
2018-02-05T07:54:23.038Z,1.55
2018-02-05T07:56:51.454Z,1.61
2018-02-05T07:59:21.919Z,1.68
2018-02-05T08:01:50.288Z,1.78
2018-02-05T08:04:19.968Z,1.79
2018-02-05T08:06:49.111Z,1.93
2018-02-05T08:09:17.456Z,1.97
2018-02-05T08:11:45.950Z,2.01
2018-02-05T08:14:14.365Z,1.99
2018-02-05T08:16:44.214Z,1.89
2018-02-05T08:19:12.587Z,1.92
2018-02-05T08:21:43.101Z,1.94
2018-02-05T08:24:11.492Z,1.96
2018-02-05T08:26:39.815Z,1.94
2018-02-05T08:29:08.218Z,1.91
2018-02-05T08:31:36.533Z,2.13
2018-02-05T08:34:04.984Z,2.08
2018-02-05T08:36:33.493Z,2.10
2018-02-05T08:39:01.876Z,2.05
2018-02-05T08:41:30.587Z,2.15
2018-02-05T08:43:58.958Z,2.34
2018-02-05T08:46:27.489Z,2.41
2018-02-05T08:48:56.617Z,2.50
2018-02-05T08:51:25.153Z,2.31
2018-02-05T08:53:54.279Z,2.35
2018-02-05T08:56:22.594Z,2.43
2018-02-05T08:58:50.929Z,2.34
2018-02-05T09:01:19.276Z,2.37
2018-02-05T09:03:48.403Z,2.42
2018-02-05T09:06:16.729Z,2.48
2018-02-05T09:08:45.116Z,2.51
2018-02-05T09:11:14.441Z,2.46
2018-02-05T09:13:42.735Z,2.59
2018-02-05T09:16:11.149Z,2.45
2018-02-05T09:18:39.442Z,2.65
2018-02-05T09:21:08.633Z,2.72
2018-02-05T09:23:36.968Z,2.70
2018-02-05T09:26:05.280Z,2.78
2018-02-05T09:28:33.780Z,2.85
2018-02-05T09:31:02.276Z,2.96
2018-02-05T09:33:31.373Z,3.02
2018-02-05T09:36:00.465Z,3.09
2018-02-05T09:38:29.635Z,3.24
2018-02-05T09:40:57.971Z,3.15
2018-02-05T09:43:27.142Z,3.26
2018-02-05T09:45:56.245Z,3.16
2018-02-05T09:48:24.643Z,3.34
2018-02-05T09:50:53.132Z,3.34
2018-02-05T09:53:21.444Z,3.44
2018-02-05T09:55:49.853Z,3.36
2018-02-05T09:58:18.952Z,3.47
2018-02-05T10:00:47.280Z,3.36
2018-02-05T10:03:15.623Z,3.38
2018-02-05T10:05:43.950Z,3.47
2018-02-05T10:08:12.394Z,3.46
2018-02-05T10:10:40.811Z,3.51
2018-02-05T10:13:09.119Z,3.54
2018-02-05T10:15:37.440Z,3.58
2018-02-05T10:18:05.760Z,3.54
2018-02-05T10:20:34.892Z,3.81
2018-02-05T10:23:04.007Z,3.81
2018-02-05T10:25:32.426Z,4.11
2018-02-05T10:28:01.522Z,4.62
2018-02-05T10:30:30.935Z,4.68
2018-02-05T10:32:59.257Z,4.82
2018-02-05T10:35:27.742Z,5.41
2018-02-05T10:37:56.121Z,4.94
2018-02-05T10:40:24.566Z,5.07
2018-02-05T10:42:52.874Z,5.14
2018-02-05T10:45:21.235Z,5.20
2018-02-05T10:47:49.590Z,5.66
2018-02-05T10:50:17.938Z,6.07
2018-02-05T10:52:46.270Z,5.64
2018-02-05T10:55:14.832Z,5.10
2018-02-05T10:57:43.188Z,5.03
2018-02-05T11:00:11.518Z,5.66
2018-02-05T11:02:39.837Z,5.53
2018-02-05T11:05:08.186Z,5.41
2018-02-05T11:07:36.487Z,5.28
2018-02-05T11:10:04.807Z,5.10
2018-02-05T11:12:33.978Z,5.28
2018-02-05T11:15:02.311Z,5.26
2018-02-05T11:17:30.670Z,5.29
2018-02-05T11:19:59.138Z,5.53
2018-02-05T11:22:27.509Z,5.63
2018-02-05T11:24:55.851Z,5.31
2018-02-05T11:27:24.204Z,5.25
2018-02-05T11:29:53.310Z,5.26
2018-02-05T11:32:21.647Z,5.18
2018-02-05T11:34:49.948Z,5.27
2018-02-05T11:37:19.014Z,5.35
2018-02-05T11:39:47.413Z,5.52
2018-02-05T11:42:15.747Z,5.81
2018-02-05T11:44:44.060Z,6.05
2018-02-05T11:47:13.167Z,5.80
2018-02-05T11:49:42.284Z,5.75
2018-02-05T11:52:10.584Z,5.28
2018-02-05T11:54:38.978Z,5.32
2018-02-05T11:57:07.313Z,5.42
2018-02-05T11:59:35.640Z,5.20
2018-02-05T12:02:03.963Z,5.12
2018-02-05T12:04:32.460Z,5.19
2018-02-05T12:07:00.753Z,5.39
2018-02-05T12:09:29.217Z,5.35
2018-02-05T12:11:57.533Z,5.79
2018-02-05T12:14:26.340Z,5.91
2018-02-05T12:16:55.248Z,8.78
2018-02-05T12:19:23.692Z,10.84
2018-02-05T12:21:52.030Z,12.08
2018-02-05T12:24:20.354Z,13.73
2018-02-05T12:26:48.679Z,10.88
2018-02-05T12:29:17.020Z,11.48
2018-02-05T12:31:46.213Z,11.93
2018-02-05T12:34:14.740Z,10.80
2018-02-05T12:36:43.064Z,9.61
2018-02-05T12:39:12.199Z,9.67
2018-02-05T12:41:40.524Z,9.42
2018-02-05T12:44:08.861Z,9.67
2018-02-05T12:46:37.154Z,9.36
2018-02-05T12:49:05.473Z,8.32
2018-02-05T12:51:33.788Z,8.22
2018-02-05T12:54:02.262Z,7.95
2018-02-05T12:56:30.567Z,8.28
2018-02-05T12:58:58.898Z,7.57
2018-02-05T13:01:32.838Z,7.64
2018-02-05T13:04:03.462Z,7.82
2018-02-05T13:06:36.190Z,7.50
2018-02-05T13:09:05.274Z,7.28
2018-02-05T13:11:33.567Z,7.82
2018-02-05T13:14:02.646Z,8.89
2018-02-05T13:16:30.968Z,9.01
2018-02-05T13:18:59.261Z,9.49
2018-02-05T13:21:27.626Z,10.19
2018-02-05T13:23:55.956Z,10.74
2018-02-05T13:26:24.363Z,9.85
2018-02-05T13:28:52.689Z,10.86
2018-02-05T13:31:21.152Z,10.26
2018-02-05T13:33:49.452Z,10.62
2018-02-05T13:36:19.331Z,11.48
2018-02-05T13:38:47.680Z,12.84
2018-02-05T13:41:16.009Z,11.32
2018-02-05T13:43:44.343Z,10.88
2018-02-05T13:46:12.696Z,9.47
2018-02-05T13:48:41.800Z,9.64
2018-02-05T13:51:10.239Z,10.23
2018-02-05T13:53:38.645Z,11.24
2018-02-05T13:56:07.912Z,10.83
2018-02-05T13:58:37.022Z,9.94
2018-02-05T14:01:05.624Z,9.73
2018-02-05T14:03:34.044Z,8.73
2018-02-05T14:06:02.383Z,9.11
2018-02-05T14:08:31.510Z,9.52
2018-02-05T14:10:59.858Z,9.59
2018-02-05T14:13:28.182Z,11.15
2018-02-05T14:15:56.499Z,10.37
2018-02-05T14:18:25.631Z,9.93
2018-02-05T14:20:53.948Z,9.25
2018-02-05T14:23:22.275Z,9.11
2018-02-05T14:25:50.827Z,8.10
2018-02-05T14:28:20.127Z,7.81
2018-02-05T14:30:49.267Z,7.28
2018-02-05T14:33:17.626Z,6.48
2018-02-05T14:35:46.033Z,6.38
2018-02-05T14:38:14.501Z,6.15
2018-02-05T14:40:42.830Z,5.82
2018-02-05T14:43:11.965Z,5.90
2018-02-05T14:45:40.301Z,5.82
2018-02-05T14:48:09.400Z,5.45
2018-02-05T14:50:38.486Z,5.52
2018-02-05T14:53:07.891Z,5.33
2018-02-05T14:55:36.563Z,5.55
2018-02-05T14:58:05.665Z,5.68
2018-02-05T15:00:34.809Z,6.09
2018-02-05T15:03:03.142Z,6.84
2018-02-05T15:05:32.206Z,6.91
2018-02-05T15:08:00.646Z,6.38
2018-02-05T15:10:28.965Z,5.74
2018-02-05T15:12:57.271Z,5.44
2018-02-05T15:15:26.528Z,5.29
2018-02-05T15:17:54.902Z,4.92
2018-02-05T15:20:23.350Z,4.80
2018-02-05T15:22:52.488Z,4.69
2018-02-05T15:25:21.820Z,4.59
2018-02-05T15:27:50.994Z,4.39
2018-02-05T15:30:20.279Z,4.50
2018-02-05T15:32:48.599Z,4.48
2018-02-05T15:35:16.919Z,4.41
2018-02-05T15:37:45.398Z,4.35
2018-02-05T15:40:13.707Z,4.22
2018-02-05T15:42:42.251Z,4.22
2018-02-05T15:45:10.650Z,4.16
2018-02-05T15:47:39.754Z,4.05
2018-02-05T15:50:08.155Z,3.97
2018-02-05T15:52:36.498Z,3.93
2018-02-05T15:55:04.841Z,3.92
2018-02-05T15:57:33.156Z,3.91
2018-02-05T16:00:02.262Z,3.75
2018-02-05T16:02:32.657Z,3.62
2018-02-05T16:05:01.402Z,3.64
2018-02-05T16:07:30.267Z,3.64
2018-02-05T16:09:59.924Z,3.62
2018-02-05T16:12:28.778Z,3.57
2018-02-05T16:14:57.116Z,3.44
2018-02-05T16:17:26.450Z,3.44
2018-02-05T16:19:55.572Z,3.38
2018-02-05T16:22:24.396Z,3.28
2018-02-05T16:24:54.024Z,3.21
2018-02-05T16:27:23.626Z,3.15
2018-02-05T16:29:52.318Z,3.10
2018-02-05T16:32:20.699Z,3.12
2018-02-05T16:34:49.977Z,3.00
2018-02-05T16:37:18.360Z,3.06
2018-02-05T16:39:46.667Z,3.09
2018-02-05T16:42:15.161Z,2.95
2018-02-05T16:44:44.096Z,2.90
2018-02-05T16:47:13.223Z,2.85
2018-02-05T16:49:42.504Z,2.87
2018-02-05T16:52:10.926Z,2.80
2018-02-05T16:54:39.252Z,2.75
2018-02-05T16:57:07.621Z,2.73
2018-02-05T16:59:36.300Z,2.84
2018-02-05T17:02:04.665Z,2.66
2018-02-05T17:04:33.001Z,2.54
2018-02-05T17:07:01.313Z,2.68
2018-02-05T17:09:29.654Z,2.61
2018-02-05T17:11:57.996Z,2.41
2018-02-05T17:14:26.406Z,2.57
2018-02-05T17:16:54.714Z,2.52
2018-02-05T17:19:23.121Z,2.44
2018-02-05T17:21:51.459Z,2.42
2018-02-05T17:24:19.943Z,2.45
2018-02-05T17:26:48.273Z,2.47
2018-02-05T17:29:17.346Z,2.41
2018-02-05T17:31:45.798Z,2.45
2018-02-05T17:34:14.599Z,2.37
2018-02-05T17:36:42.916Z,2.40
2018-02-05T17:39:11.341Z,2.34
2018-02-05T17:41:39.665Z,2.36
2018-02-05T17:44:09.151Z,2.18
2018-02-05T17:46:38.241Z,2.28
2018-02-05T17:49:06.838Z,2.18
2018-02-05T17:51:36.798Z,2.24
2018-02-05T17:54:05.435Z,2.19
2018-02-05T17:56:34.029Z,2.22
2018-02-05T17:59:02.937Z,2.21
2018-02-05T18:01:31.504Z,2.13
2018-02-05T18:04:00.999Z,2.17
2018-02-05T18:06:30.333Z,2.17
2018-02-05T18:08:59.077Z,2.12
2018-02-05T18:11:28.402Z,2.11
2018-02-05T18:13:56.952Z,2.14
2018-02-05T18:16:27.103Z,2.10
2018-02-05T18:18:56.433Z,1.98
2018-02-05T18:21:25.052Z,2.10
2018-02-05T18:23:54.103Z,1.81
2018-02-05T18:26:23.580Z,1.81
2018-02-05T18:28:52.192Z,1.87
2018-02-05T18:31:20.983Z,1.89
2018-02-05T18:33:49.776Z,1.83
2018-02-05T18:36:18.415Z,1.90
2018-02-05T18:38:47.137Z,1.86
2018-02-05T18:41:15.999Z,1.84
2018-02-05T18:43:45.552Z,1.92
2018-02-05T18:46:14.059Z,1.86
2018-02-05T18:48:42.935Z,1.78
2018-02-05T18:51:11.541Z,1.63
2018-02-05T18:53:39.890Z,1.84
2018-02-05T18:56:09.225Z,1.66
2018-02-05T18:58:38.959Z,1.68
2018-02-05T19:01:08.523Z,1.83
2018-02-05T19:03:37.480Z,1.76
2018-02-05T19:06:06.932Z,1.83
2018-02-05T19:08:35.696Z,1.84
2018-02-05T19:11:06.367Z,1.77
2018-02-05T19:13:35.365Z,1.85
2018-02-05T19:16:04.269Z,1.69
2018-02-05T19:18:33.126Z,1.65
2018-02-05T19:21:03.058Z,1.63
2018-02-05T19:23:31.654Z,1.66
2018-02-05T19:26:00.677Z,1.66
2018-02-05T19:28:29.731Z,1.67
2018-02-05T19:30:58.839Z,1.56
2018-02-05T19:33:27.516Z,1.60
2018-02-05T19:35:56.214Z,1.56
2018-02-05T19:38:25.190Z,1.53
2018-02-05T19:40:53.668Z,1.60
2018-02-05T19:43:22.898Z,1.54
2018-02-05T19:45:51.570Z,1.46
2018-02-05T19:48:20.671Z,1.68
2018-02-05T19:50:49.346Z,1.67
2018-02-05T19:53:18.127Z,1.68
2018-02-05T19:55:46.985Z,1.58
2018-02-05T19:58:15.603Z,1.62
2018-02-05T20:00:44.028Z,1.55
2018-02-05T20:03:13.022Z,1.51
2018-02-05T20:05:41.858Z,1.60
2018-02-05T20:08:10.349Z,1.54
2018-02-05T20:10:38.780Z,1.51
2018-02-05T20:13:07.822Z,1.68
2018-02-05T20:15:36.608Z,1.55
2018-02-05T20:18:05.570Z,1.60
2018-02-05T20:20:35.241Z,1.56
2018-02-05T20:23:04.886Z,1.56
2018-02-05T20:25:33.524Z,1.55
2018-02-05T20:28:03.143Z,1.53
2018-02-05T20:30:31.969Z,1.52
2018-02-05T20:33:01.391Z,1.56
2018-02-05T20:35:30.256Z,1.52
2018-02-05T20:37:58.988Z,1.47
2018-02-05T20:40:27.726Z,1.48
2018-02-05T20:42:56.634Z,1.49
2018-02-05T20:45:25.337Z,1.47
2018-02-05T20:47:54.093Z,1.51
2018-02-05T20:50:23.178Z,1.55
2018-02-05T20:52:54.138Z,1.53
2018-02-05T20:55:23.090Z,1.59
2018-02-05T20:57:52.159Z,1.57
2018-02-05T21:00:23.062Z,1.54
2018-02-05T21:02:51.886Z,1.60
2018-02-05T21:05:20.823Z,1.48
2018-02-05T21:07:49.673Z,1.43
2018-02-05T21:10:18.659Z,1.50
2018-02-05T21:12:49.575Z,1.55
2018-02-05T21:15:18.287Z,1.50
2018-02-05T21:17:47.933Z,1.62
2018-02-05T21:20:17.564Z,1.64
2018-02-05T21:22:47.120Z,1.71
2018-02-05T21:25:17.089Z,1.58
2018-02-05T21:27:47.071Z,1.60
2018-02-05T21:30:15.593Z,1.58
2018-02-05T21:32:44.409Z,1.55
2018-02-05T21:35:13.738Z,1.52
2018-02-05T21:37:43.253Z,1.55
2018-02-05T21:40:13.923Z,1.55
2018-02-05T21:42:46.086Z,1.54
2018-02-05T21:45:15.393Z,1.62
2018-02-05T21:47:46.202Z,1.50
2018-02-05T21:50:15.468Z,1.60
2018-02-05T21:52:44.544Z,1.57
2018-02-05T21:55:14.318Z,1.50
2018-02-05T21:57:43.586Z,1.45
2018-02-05T22:00:13.495Z,1.56
2018-02-05T22:02:47.806Z,1.52
2018-02-05T22:05:18.212Z,1.52
2018-02-05T22:07:47.848Z,1.52
2018-02-05T22:10:16.438Z,1.54
2018-02-05T22:12:44.998Z,1.48
2018-02-05T22:15:13.729Z,1.47
2018-02-05T22:17:43.573Z,1.42
2018-02-05T22:20:13.018Z,1.42
2018-02-05T22:22:43.317Z,1.53
2018-02-05T22:25:12.172Z,1.55
2018-02-05T22:27:42.156Z,1.55
2018-02-05T22:30:11.294Z,1.51
2018-02-05T22:32:40.629Z,1.41
2018-02-05T22:35:10.133Z,1.51
2018-02-05T22:37:39.360Z,1.48
2018-02-05T22:40:07.846Z,1.50
2018-02-05T22:42:37.590Z,1.57
2018-02-05T22:45:06.928Z,1.51
2018-02-05T22:47:35.988Z,1.47
2018-02-05T22:50:05.287Z,1.46
2018-02-05T22:52:33.687Z,1.46
2018-02-05T22:55:02.453Z,1.43
2018-02-05T22:57:31.942Z,1.58
2018-02-05T23:00:01.876Z,1.55
2018-02-05T23:02:32.543Z,1.38
2018-02-05T23:05:03.418Z,1.38
2018-02-05T23:07:33.826Z,1.38
2018-02-05T23:10:03.442Z,1.38
2018-02-05T23:12:33.567Z,1.43
2018-02-05T23:15:02.136Z,1.44
2018-02-05T23:17:30.730Z,1.42
2018-02-05T23:19:59.788Z,1.52
2018-02-05T23:22:29.977Z,1.51
2018-02-05T23:24:59.153Z,1.43
2018-02-05T23:27:27.756Z,1.46
2018-02-05T23:29:56.740Z,1.51
2018-02-05T23:35:27.028Z,1.63
2018-02-05T23:37:56.542Z,1.61
2018-02-05T23:40:25.623Z,1.59
2018-02-05T23:42:54.184Z,1.61
2018-02-05T23:45:22.598Z,1.57
2018-02-05T23:47:51.410Z,1.62
2018-02-05T23:50:19.976Z,1.58
2018-02-05T23:52:49.562Z,1.58
2018-02-05T23:55:17.962Z,1.52
2018-02-05T23:57:47.668Z,1.56
